Time;durP1;ratioP1;P1;durP2;ratioP2;P2;SDS_P1;SDS_P2;PMS_P1;PMS_P2;Temp;Humidity;BMP_temperature;BMP_pressure;BME280_temperature;BME280_humidity;BME280_pressure;Samples;Min_cycle;Max_cycle;Signal;HPM_P1;HPM_P2
2021/11/20 00:02:29;;;;;;;;;;;11.20;1.00;;;;;;5012065;28;19913;-79
2021/11/20 00:04:55;;;;;;;;;;;11.20;1.00;;;;;;5020225;28;19929;-79
2021/11/20 00:07:21;;;;;;;;;;;11.20;1.00;;;;;;4996380;28;20099;-79
2021/11/20 00:09:47;;;;;;;;;;;11.20;1.00;;;;;;5014078;28;20024;-80
2021/11/20 00:12:17;;;;;;;;;;;11.20;1.00;;;;;;5011237;28;19913;-79
2021/11/20 00:14:42;;;;;;;;;;;11.20;1.00;;;;;;5020024;28;19920;-79
2021/11/20 00:17:08;;;;;;;;;;;11.20;1.00;;;;;;4996929;28;19964;-79
2021/11/20 00:19:34;;;;;;;;;;;11.20;1.00;;;;;;5020745;28;19920;-79
2021/11/20 00:22:05;;;;;;;;;;;11.20;1.00;;;;;;5003876;28;19952;-79
2021/11/20 00:24:34;;;;;;;;;;;11.20;1.00;;;;;;5018824;28;19953;-79
2021/11/20 00:27:01;;;;;;;;;;;11.20;1.00;;;;;;5019706;28;19920;-79
2021/11/20 00:29:38;;;;;;;;;;;11.20;1.00;;;;;;5022210;28;20404;-79
2021/11/20 00:32:08;;;;;;;;;;;11.20;1.00;;;;;;4995421;28;19910;-79
2021/11/20 00:34:34;;;;;;;;;;;11.20;1.00;;;;;;4987431;28;19969;-79
2021/11/20 00:37:00;;;;;;;;;;;11.20;1.00;;;;;;4985918;28;19980;-79
2021/11/20 00:39:27;;;;;;;;;;;11.20;1.00;;;;;;5016110;28;19935;-80
2021/11/20 00:41:53;;;;;;;;;;;11.20;1.00;;;;;;5006059;28;20317;-79
2021/11/20 00:44:18;;;;;;;;;;;11.20;1.00;;;;;;5011589;28;19937;-79
2021/11/20 00:46:45;;;;;;;;;;;11.20;1.00;;;;;;5003186;28;19910;-79
2021/11/20 00:49:11;;;;;;;;;;;11.20;1.00;;;;;;4991903;28;19914;-80
2021/11/20 00:51:36;;;;;;;;;;;11.20;1.00;;;;;;5018218;28;19929;-79
2021/11/20 00:54:02;;;;;;;;;;;11.20;1.00;;;;;;5012781;28;19925;-79
2021/11/20 00:56:29;;;;;;;;;;;11.20;1.00;;;;;;5004908;28;19917;-79
2021/11/20 00:58:55;;;;;;;;;;;11.20;1.00;;;;;;5021246;28;19960;-79
2021/11/20 01:01:23;;;;;;;;;;;11.20;1.00;;;;;;5021624;28;19914;-80
2021/11/20 01:03:49;;;;;;;;;;;11.20;1.00;;;;;;4996469;28;20020;-80
2021/11/20 01:06:14;;;;;;;;;;;11.20;1.00;;;;;;5021743;28;20381;-79
2021/11/20 01:08:42;;;;;;;;;;;11.20;1.00;;;;;;5021294;28;19913;-79
2021/11/20 01:11:10;;;;;;;;;;;11.20;1.00;;;;;;5021811;28;19964;-79
2021/11/20 01:13:36;;;;;;;;;;;11.30;1.00;;;;;;5001800;28;19917;-80
2021/11/20 01:16:03;;;;;;;;;;;11.20;1.00;;;;;;4996274;28;20073;-79
2021/11/20 01:18:30;;;;;;;;;;;11.20;1.00;;;;;;5005308;28;19910;-79
2021/11/20 01:20:55;;;;;;;;;;;11.20;1.00;;;;;;5012771;28;19910;-79
2021/11/20 01:23:24;;;;;;;;;;;11.20;1.00;;;;;;5010130;28;19914;-79
2021/11/20 01:25:50;;;;;;;;;;;11.20;1.00;;;;;;5002875;28;19913;-79
2021/11/20 01:28:15;;;;;;;;;;;11.20;1.00;;;;;;5004105;28;20262;-79
2021/11/20 01:30:41;;;;;;;;;;;11.20;1.00;;;;;;5020383;28;19920;-79
2021/11/20 01:33:06;;;;;;;;;;;11.20;1.00;;;;;;5018757;28;19913;-79
2021/11/20 01:35:32;;;;;;;;;;;11.20;1.00;;;;;;5010552;28;19916;-79
2021/11/20 01:37:57;;;;;;;;;;;11.20;1.00;;;;;;5019533;28;19916;-79
2021/11/20 01:40:25;;;;;;;;;;;11.20;1.00;;;;;;5021765;28;19978;-79
2021/11/20 01:42:51;;;;;;;;;;;11.20;1.00;;;;;;5021340;28;19945;-79
2021/11/20 01:45:32;;;;;;;;;;;11.10;1.00;;;;;;5022632;28;19925;-79
2021/11/20 01:48:13;;;;;;;;;;;11.10;1.00;;;;;;5004653;28;19909;-79
2021/11/20 01:50:39;;;;;;;;;;;11.20;1.00;;;;;;5022816;28;19965;-79
2021/11/20 01:53:05;;;;;;;;;;;11.10;1.00;;;;;;4999905;28;20390;-79
2021/11/20 01:55:43;;;;;;;;;;;11.10;1.00;;;;;;5008762;28;19933;-79
2021/11/20 01:58:19;;;;;;;;;;;11.10;1.00;;;;;;5012733;28;20403;-79
2021/11/20 02:00:48;;;;;;;;;;;11.10;1.00;;;;;;5021236;28;19913;-79
2021/11/20 02:03:17;;;;;;;;;;;11.20;1.00;;;;;;4996016;28;19914;-79
2021/11/20 02:05:46;;;;;;;;;;;11.20;1.00;;;;;;5005731;28;19910;-79
2021/11/20 02:08:18;;;;;;;;;;;11.20;1.00;;;;;;5023565;28;20408;-79
2021/11/20 02:10:43;;;;;;;;;;;11.20;1.00;;;;;;5004170;28;19914;-79
2021/11/20 02:13:10;;;;;;;;;;;11.20;1.00;;;;;;5022653;28;19948;-79
2021/11/20 02:15:40;;;;;;;;;;;11.20;1.00;;;;;;5001605;28;19910;-80
2021/11/20 02:18:07;;;;;;;;;;;11.20;1.00;;;;;;5002623;28;19945;-79
2021/11/20 02:20:35;;;;;;;;;;;11.20;1.00;;;;;;4992293;28;19909;-79
2021/11/20 02:23:01;;;;;;;;;;;11.20;1.00;;;;;;5004246;28;19913;-79
2021/11/20 02:25:26;;;;;;;;;;;11.20;1.00;;;;;;5018991;28;19937;-79
2021/11/20 02:27:53;;;;;;;;;;;11.10;1.00;;;;;;5019123;28;19937;-79
2021/11/20 02:30:24;;;;;;;;;;;11.10;1.00;;;;;;5005141;28;19910;-79
2021/11/20 02:32:53;;;;;;;;;;;11.10;1.00;;;;;;5018639;28;19924;-79
2021/11/20 02:35:20;;;;;;;;;;;11.10;1.00;;;;;;5002619;28;19916;-79
2021/11/20 02:37:46;;;;;;;;;;;11.10;1.00;;;;;;4994368;28;19914;-79
2021/11/20 02:40:12;;;;;;;;;;;11.10;1.00;;;;;;5015754;28;19957;-79
2021/11/20 02:42:38;;;;;;;;;;;11.10;1.00;;;;;;5024082;28;19993;-80
2021/11/20 02:45:11;;;;;;;;;;;11.10;1.00;;;;;;5000898;28;19913;-79
2021/11/20 02:47:37;;;;;;;;;;;11.10;1.00;;;;;;5023102;28;19918;-80
2021/11/20 02:50:04;;;;;;;;;;;11.10;1.00;;;;;;4997120;28;19917;-79
2021/11/20 02:52:30;;;;;;;;;;;11.10;1.00;;;;;;5015757;28;19913;-79
2021/11/20 02:54:56;;;;;;;;;;;11.10;1.00;;;;;;5005149;28;19910;-79
2021/11/20 02:57:27;;;;;;;;;;;11.10;1.00;;;;;;5022110;28;19910;-79
2021/11/20 02:59:53;;;;;;;;;;;11.10;1.00;;;;;;5005058;28;19910;-78
2021/11/20 03:02:19;;;;;;;;;;;11.10;1.00;;;;;;5002086;28;19913;-79
2021/11/20 03:04:45;;;;;;;;;;;11.10;1.00;;;;;;4999650;28;19920;-79
2021/11/20 03:07:11;;;;;;;;;;;11.10;1.00;;;;;;5004647;28;19957;-79
2021/11/20 03:09:36;;;;;;;;;;;11.10;1.00;;;;;;5023523;28;19913;-79
2021/11/20 03:12:03;;;;;;;;;;;11.10;1.00;;;;;;5009321;28;19976;-79
2021/11/20 03:14:28;;;;;;;;;;;11.10;1.00;;;;;;5004993;28;19957;-79
2021/11/20 03:16:59;;;;;;;;;;;11.10;1.00;;;;;;5005422;28;20285;-79
2021/11/20 03:19:27;;;;;;;;;;;11.10;1.00;;;;;;5022892;28;19959;-79
2021/11/20 03:21:55;;;;;;;;;;;11.10;1.00;;;;;;5019104;28;19936;-79
2021/11/20 03:24:22;;;;;;;;;;;11.10;1.00;;;;;;4987900;28;20290;-80
2021/11/20 03:26:48;;;;;;;;;;;11.10;1.00;;;;;;5022442;28;19910;-80
2021/11/20 03:29:13;;;;;;;;;;;11.10;1.00;;;;;;5004494;28;19910;-79
2021/11/20 03:31:39;;;;;;;;;;;11.10;1.00;;;;;;5001175;28;19916;-80
2021/11/20 03:34:05;;;;;;;;;;;11.10;1.00;;;;;;5020916;28;19921;-79
2021/11/20 03:36:31;;;;;;;;;;;11.10;1.00;;;;;;5018958;28;20289;-79
2021/11/20 03:38:56;;;;;;;;;;;11.10;1.00;;;;;;5017638;28;19920;-79
2021/11/20 03:41:22;;;;;;;;;;;11.10;1.00;;;;;;5004303;28;19920;-79
2021/11/20 03:43:48;;;;;;;;;;;11.10;1.00;;;;;;5004491;28;19916;-79
2021/11/20 03:46:13;;;;;;;;;;;11.10;1.00;;;;;;5022049;28;19920;-79
2021/11/20 03:48:39;;;;;;;;;;;11.10;1.00;;;;;;5022470;28;19956;-79
2021/11/20 03:51:04;;;;;;;;;;;11.10;1.00;;;;;;5002763;28;19914;-79
2021/11/20 03:53:30;;;;;;;;;;;11.10;1.00;;;;;;5011823;28;19917;-79
2021/11/20 03:55:55;;;;;;;;;;;11.10;1.00;;;;;;5019214;28;19913;-79
2021/11/20 03:58:21;;;;;;;;;;;11.10;1.00;;;;;;5004579;28;19914;-79
2021/11/20 04:00:49;;;;;;;;;;;11.10;1.00;;;;;;4998760;28;19917;-79
2021/11/20 04:03:20;;;;;;;;;;;11.10;1.00;;;;;;5003735;28;19910;-79
2021/11/20 04:05:46;;;;;;;;;;;11.20;1.00;;;;;;5007325;28;19917;-80
2021/11/20 04:08:12;;;;;;;;;;;11.20;1.00;;;;;;5008717;28;19910;-79
2021/11/20 04:10:37;;;;;;;;;;;11.20;1.00;;;;;;5022920;28;20000;-79
2021/11/20 04:13:03;;;;;;;;;;;11.20;1.00;;;;;;5001569;28;19918;-79
2021/11/20 04:15:28;;;;;;;;;;;11.20;1.00;;;;;;5008141;28;19981;-79
2021/11/20 04:17:54;;;;;;;;;;;11.20;1.00;;;;;;4991669;28;19917;-79
2021/11/20 04:20:21;;;;;;;;;;;11.20;1.00;;;;;;5023632;28;20009;-79
2021/11/20 04:22:48;;;;;;;;;;;11.20;1.00;;;;;;5006298;28;20594;-79
2021/11/20 04:25:15;;;;;;;;;;;11.20;1.00;;;;;;5008363;28;19928;-79
2021/11/20 04:27:40;;;;;;;;;;;11.20;1.00;;;;;;5005936;28;19921;-81
2021/11/20 04:30:07;;;;;;;;;;;11.20;1.00;;;;;;5006950;28;19913;-79
2021/11/20 04:32:32;;;;;;;;;;;11.20;1.00;;;;;;5006875;28;19924;-79
2021/11/20 04:34:58;;;;;;;;;;;11.20;1.00;;;;;;5015566;28;19957;-79
2021/11/20 04:37:23;;;;;;;;;;;11.20;1.00;;;;;;5025417;28;19967;-79
2021/11/20 04:39:49;;;;;;;;;;;11.20;1.00;;;;;;5016252;28;19913;-79
2021/11/20 04:42:15;;;;;;;;;;;11.20;1.00;;;;;;5025718;28;19909;-79
2021/11/20 04:44:41;;;;;;;;;;;11.20;1.00;;;;;;5007098;28;19921;-79
2021/11/20 04:47:06;;;;;;;;;;;11.20;1.00;;;;;;5004229;28;19917;-79
2021/11/20 04:49:32;;;;;;;;;;;11.20;99.90;;;;;;5017807;28;19913;-80
2021/11/20 04:51:57;;;;;;;;;;;11.20;99.90;;;;;;5024494;28;19909;-80
2021/11/20 04:54:23;;;;;;;;;;;11.20;99.90;;;;;;5007484;28;20052;-79
2021/11/20 04:56:48;;;;;;;;;;;11.20;99.90;;;;;;5020036;28;19916;-79
2021/11/20 04:59:14;;;;;;;;;;;11.20;99.90;;;;;;5007887;28;19921;-80
2021/11/20 05:01:40;;;;;;;;;;;11.20;99.90;;;;;;5002214;28;19910;-78
2021/11/20 05:04:05;;;;;;;;;;;11.20;99.90;;;;;;5001461;28;20012;-78
2021/11/20 05:06:32;;;;;;;;;;;11.10;99.90;;;;;;5019133;28;20390;-78
2021/11/20 05:08:59;;;;;;;;;;;11.20;99.90;;;;;;5019485;28;19910;-78
2021/11/20 05:11:26;;;;;;;;;;;11.10;99.90;;;;;;5019694;28;20365;-78
2021/11/20 05:13:52;;;;;;;;;;;11.10;99.90;;;;;;5013502;28;19917;-78
2021/11/20 05:16:17;;;;;;;;;;;11.20;99.90;;;;;;4999736;28;19967;-78
2021/11/20 05:18:43;;;;;;;;;;;11.10;99.90;;;;;;5011514;28;20005;-78
2021/11/20 05:21:09;;;;;;;;;;;11.10;99.90;;;;;;4984456;28;19921;-78
2021/11/20 05:23:35;;;;;;;;;;;11.10;99.90;;;;;;5018371;28;19980;-78
2021/11/20 05:26:01;;;;;;;;;;;11.10;99.90;;;;;;5019946;28;19913;-78
2021/11/20 05:28:26;;;;;;;;;;;11.10;99.90;;;;;;5000659;28;19924;-78
2021/11/20 05:30:52;;;;;;;;;;;11.10;99.90;;;;;;5001894;28;19917;-78
2021/11/20 05:33:18;;;;;;;;;;;11.10;99.90;;;;;;5014383;28;19917;-78
2021/11/20 05:35:44;;;;;;;;;;;11.10;99.90;;;;;;5013087;28;19952;-79
2021/11/20 05:38:10;;;;;;;;;;;11.00;99.90;;;;;;5018361;28;20508;-78
2021/11/20 05:40:37;;;;;;;;;;;11.00;99.90;;;;;;4997822;28;19926;-78
2021/11/20 05:43:11;;;;;;;;;;;11.00;99.90;;;;;;5011859;28;20008;-78
2021/11/20 05:45:39;;;;;;;;;;;11.00;99.90;;;;;;4995118;28;19913;-78
2021/11/20 05:48:05;;;;;;;;;;;11.00;99.90;;;;;;4999873;28;19914;-78
2021/11/20 05:50:30;;;;;;;;;;;11.00;99.90;;;;;;4984483;28;19913;-79
2021/11/20 05:52:57;;;;;;;;;;;11.00;99.90;;;;;;5009177;28;19987;-78
2021/11/20 05:55:28;;;;;;;;;;;11.00;99.90;;;;;;4998765;28;19909;-78
2021/11/20 05:57:53;;;;;;;;;;;11.00;99.90;;;;;;5001237;28;19913;-78
2021/11/20 06:00:21;;;;;;;;;;;11.00;99.90;;;;;;5017453;28;20327;-78
2021/11/20 06:02:47;;;;;;;;;;;11.00;99.90;;;;;;5017579;28;19964;-78
2021/11/20 06:05:13;;;;;;;;;;;11.00;99.90;;;;;;5018560;28;19910;-78
2021/11/20 06:07:38;;;;;;;;;;;11.00;99.90;;;;;;5018390;28;20285;-78
2021/11/20 06:10:04;;;;;;;;;;;11.00;99.90;;;;;;5014279;28;19914;-78
2021/11/20 06:12:30;;;;;;;;;;;11.00;99.90;;;;;;5018908;28;19980;-78
2021/11/20 06:14:55;;;;;;;;;;;10.90;99.90;;;;;;5001257;28;19968;-78
2021/11/20 06:17:21;;;;;;;;;;;10.90;99.90;;;;;;5001149;28;19917;-78
2021/11/20 06:19:46;;;;;;;;;;;11.00;99.90;;;;;;4988131;28;19913;-78
2021/11/20 06:22:11;;;;;;;;;;;10.90;99.90;;;;;;5018378;28;19913;-78
2021/11/20 06:24:37;;;;;;;;;;;10.90;99.90;;;;;;5017662;28;19975;-78
2021/11/20 06:27:02;;;;;;;;;;;10.90;99.90;;;;;;5006917;28;19914;-78
2021/11/20 06:29:28;;;;;;;;;;;10.90;1.00;;;;;;5022835;28;20341;-78
2021/11/20 06:31:53;;;;;;;;;;;10.90;1.00;;;;;;5001760;28;19987;-79
2021/11/20 06:34:19;;;;;;;;;;;10.90;1.00;;;;;;5017536;28;20516;-78
2021/11/20 06:36:44;;;;;;;;;;;11.00;1.00;;;;;;5017882;28;19956;-78
2021/11/20 06:39:10;;;;;;;;;;;11.00;1.00;;;;;;5000640;28;19909;-77
2021/11/20 06:41:35;;;;;;;;;;;11.00;1.00;;;;;;5001210;28;19914;-78
2021/11/20 06:44:02;;;;;;;;;;;11.10;99.90;;;;;;5010219;28;20401;-78
2021/11/20 06:46:27;;;;;;;;;;;11.10;99.90;;;;;;5010445;28;19909;-78
2021/11/20 06:48:52;;;;;;;;;;;11.20;99.90;;;;;;5001226;28;19916;-77
2021/11/20 06:51:19;;;;;;;;;;;11.20;99.90;;;;;;5018530;28;19910;-78
2021/11/20 06:53:46;;;;;;;;;;;11.20;99.90;;;;;;5000955;28;19976;-77
2021/11/20 06:56:15;;;;;;;;;;;11.20;99.90;;;;;;5001137;28;19921;-78
2021/11/20 06:58:52;;;;;;;;;;;11.20;99.90;;;;;;5019188;28;19909;-78
2021/11/20 07:01:20;;;;;;;;;;;11.20;99.90;;;;;;4998935;28;19964;-78
2021/11/20 07:03:46;;;;;;;;;;;11.20;99.90;;;;;;4999072;28;19910;-78
2021/11/20 07:06:18;;;;;;;;;;;11.20;99.90;;;;;;5006992;28;20298;-78
2021/11/20 07:08:45;;;;;;;;;;;11.20;99.90;;;;;;5011788;28;19910;-78
2021/11/20 07:11:11;;;;;;;;;;;11.20;99.90;;;;;;5018704;28;20004;-78
2021/11/20 07:13:37;;;;;;;;;;;11.20;99.90;;;;;;5018433;28;19921;-77
2021/11/20 07:16:03;;;;;;;;;;;11.20;99.90;;;;;;5017839;28;19913;-78
2021/11/20 07:18:29;;;;;;;;;;;11.20;99.90;;;;;;5016951;28;19920;-78
2021/11/20 07:20:54;;;;;;;;;;;11.20;99.90;;;;;;5018073;28;19913;-77
2021/11/20 07:23:20;;;;;;;;;;;11.20;99.90;;;;;;5017000;28;19914;-77
2021/11/20 07:25:46;;;;;;;;;;;11.20;99.90;;;;;;5000518;28;19920;-77
2021/11/20 07:28:11;;;;;;;;;;;11.20;99.90;;;;;;4999844;28;20047;-77
2021/11/20 07:30:38;;;;;;;;;;;11.20;99.90;;;;;;5015764;28;20301;-77
2021/11/20 07:33:04;;;;;;;;;;;11.20;99.90;;;;;;5018199;28;19914;-77
2021/11/20 07:35:35;;;;;;;;;;;11.20;99.90;;;;;;5020343;28;19980;-77
2021/11/20 07:38:03;;;;;;;;;;;11.20;99.90;;;;;;4995888;28;19917;-77
2021/11/20 07:40:29;;;;;;;;;;;11.20;99.90;;;;;;4993684;28;19913;-78
2021/11/20 07:42:54;;;;;;;;;;;11.20;99.90;;;;;;5018078;28;20285;-78
2021/11/20 07:45:20;;;;;;;;;;;11.20;99.90;;;;;;5000447;28;19920;-78
2021/11/20 07:47:46;;;;;;;;;;;11.20;95.30;;;;;;5017905;28;19917;-78
2021/11/20 07:50:12;;;;;;;;;;;11.20;90.90;;;;;;5016603;28;19913;-78
2021/11/20 07:52:37;;;;;;;;;;;11.30;44.10;;;;;;5001692;28;20055;-78
2021/11/20 07:55:04;;;;;;;;;;;11.30;20.90;;;;;;5001633;28;19933;-78
2021/11/20 07:57:30;;;;;;;;;;;11.30;1.00;;;;;;5019518;28;19909;-78
2021/11/20 07:59:55;;;;;;;;;;;11.30;1.00;;;;;;5020147;28;20056;-78
2021/11/20 08:02:21;;;;;;;;;;;11.30;1.00;;;;;;5019714;28;19910;-78
2021/11/20 08:04:46;;;;;;;;;;;11.30;1.00;;;;;;5018860;28;19916;-78
2021/11/20 08:07:12;;;;;;;;;;;11.40;1.00;;;;;;5014685;28;19948;-78
2021/11/20 08:09:37;;;;;;;;;;;11.40;1.00;;;;;;5018823;28;20396;-78
2021/11/20 08:12:03;;;;;;;;;;;11.40;1.00;;;;;;5019155;28;20004;-78
2021/11/20 08:14:29;;;;;;;;;;;11.40;1.00;;;;;;5001425;28;19914;-78
2021/11/20 08:16:55;;;;;;;;;;;11.40;1.00;;;;;;5022932;28;20471;-78
2021/11/20 08:19:21;;;;;;;;;;;11.40;1.00;;;;;;5022198;28;19914;-78
2021/11/20 08:21:47;;;;;;;;;;;11.40;1.00;;;;;;5007555;28;19909;-79
2021/11/20 08:24:12;;;;;;;;;;;11.50;1.00;;;;;;5006536;28;19917;-78
2021/11/20 08:26:38;;;;;;;;;;;11.50;99.90;;;;;;4991830;28;19913;-78
2021/11/20 08:29:08;;;;;;;;;;;11.50;99.90;;;;;;5017090;28;19959;-78
2021/11/20 08:31:35;;;;;;;;;;;11.60;99.90;;;;;;5004665;28;19913;-78
2021/11/20 08:34:01;;;;;;;;;;;11.60;99.90;;;;;;5010036;28;19932;-78
2021/11/20 08:36:27;;;;;;;;;;;11.60;99.90;;;;;;4996280;28;20389;-78
2021/11/20 08:38:52;;;;;;;;;;;11.60;99.90;;;;;;4992970;28;20366;-78
2021/11/20 08:41:18;;;;;;;;;;;11.60;97.70;;;;;;4990982;28;19921;-78
2021/11/20 08:43:43;;;;;;;;;;;11.70;82.10;;;;;;5000038;28;19913;-78
2021/11/20 08:46:09;;;;;;;;;;;11.70;1.00;;;;;;5016130;28;20474;-78
2021/11/20 08:48:35;;;;;;;;;;;11.70;1.00;;;;;;4987818;28;19914;-79
2021/11/20 08:51:03;;;;;;;;;;;11.80;1.00;;;;;;5001777;28;19945;-78
2021/11/20 08:53:29;;;;;;;;;;;11.80;1.00;;;;;;5014558;28;19921;-78
2021/11/20 08:55:54;;;;;;;;;;;11.80;99.90;;;;;;5005731;28;19985;-78
2021/11/20 08:58:21;;;;;;;;;;;11.80;99.90;;;;;;5004434;28;19913;-78
2021/11/20 09:00:54;;;;;;;;;;;11.90;99.90;;;;;;5015238;28;19917;-78
2021/11/20 09:03:43;;;;;;;;;;;11.90;1.00;;;;;;5001563;28;19929;-79
2021/11/20 09:06:17;;;;;;;;;;;12.00;21.50;;;;;;5020387;28;20365;-79
2021/11/20 09:08:55;;;;;;;;;;;12.00;1.00;;;;;;5019294;28;19976;-78
2021/11/20 09:11:33;;;;;;;;;;;12.00;1.00;;;;;;5002514;28;19941;-78
2021/11/20 09:14:02;;;;;;;;;;;12.00;99.90;;;;;;5013547;28;19917;-78
2021/11/20 09:16:27;;;;;;;;;;;12.00;99.90;;;;;;5016542;28;19960;-78
2021/11/20 09:18:54;;;;;;;;;;;12.10;99.90;;;;;;5008864;28;20286;-78
2021/11/20 09:21:19;;;;;;;;;;;12.20;99.90;;;;;;5014410;28;20341;-78
2021/11/20 09:23:46;;;;;;;;;;;12.20;1.00;;;;;;4994831;28;19921;-78
2021/11/20 09:26:12;;;;;;;;;;;12.30;1.00;;;;;;5022326;28;20004;-78
2021/11/20 09:28:38;;;;;;;;;;;12.30;1.00;;;;;;5003681;28;20381;-78
2021/11/20 09:31:05;;;;;;;;;;;12.40;1.00;;;;;;4997177;28;19981;-78
2021/11/20 09:33:30;;;;;;;;;;;12.40;99.90;;;;;;5011516;28;19918;-78
2021/11/20 09:35:56;;;;;;;;;;;12.40;99.90;;;;;;5022468;28;19909;-78
2021/11/20 09:38:23;;;;;;;;;;;12.40;99.90;;;;;;5022959;28;20028;-78
2021/11/20 09:40:50;;;;;;;;;;;12.50;99.90;;;;;;5021194;28;19917;-77
2021/11/20 09:43:19;;;;;;;;;;;12.50;1.00;;;;;;5016254;28;19914;-78
2021/11/20 09:45:50;;;;;;;;;;;12.50;1.00;;;;;;5017048;28;19917;-78
2021/11/20 09:48:18;;;;;;;;;;;12.40;1.00;;;;;;5021559;28;19921;-77
2021/11/20 09:50:59;;;;;;;;;;;12.40;1.00;;;;;;5003558;28;19936;-78
2021/11/20 09:53:24;;;;;;;;;;;12.40;1.00;;;;;;5006161;28;19917;-77
2021/11/20 09:55:56;;;;;;;;;;;12.40;1.00;;;;;;5014276;28;19963;-78
2021/11/20 09:58:31;;;;;;;;;;;12.40;99.90;;;;;;5014550;28;20377;-78
2021/11/20 10:01:11;;;;;;;;;;;12.40;99.90;;;;;;5014600;28;19951;-78
2021/11/20 10:03:49;;;;;;;;;;;12.40;99.90;;;;;;5016340;28;19914;-78
2021/11/20 10:06:17;;;;;;;;;;;12.40;99.90;;;;;;5015984;28;19960;-78
2021/11/20 10:08:44;;;;;;;;;;;12.40;99.90;;;;;;5015288;28;19917;-78
2021/11/20 10:11:09;;;;;;;;;;;12.40;99.90;;;;;;4988068;28;19914;-78
2021/11/20 10:14:10;;;;;;;;;;;12.40;99.90;;;;;;5018351;28;19925;-77
2021/11/20 10:16:54;;;;;;;;;;;12.40;99.90;;;;;;4948884;28;20403;-78
2021/11/20 10:19:32;;;;;;;;;;;12.40;99.90;;;;;;5004346;28;19948;-78
2021/11/20 10:21:58;;;;;;;;;;;12.40;99.90;;;;;;5018485;28;19913;-78
2021/11/20 10:24:24;;;;;;;;;;;12.40;98.10;;;;;;4997142;28;19927;-78
2021/11/20 10:26:52;;;;;;;;;;;12.40;99.90;;;;;;5017606;28;19913;-78
2021/11/20 10:29:25;;;;;;;;;;;12.40;48.00;;;;;;5012758;28;19941;-78
2021/11/20 10:32:03;;;;;;;;;;;12.50;1.00;;;;;;5011814;28;20013;-78
2021/11/20 10:34:48;;;;;;;;;;;12.50;1.00;;;;;;5001623;28;19949;-78
2021/11/20 10:37:16;;;;;;;;;;;12.50;1.00;;;;;;5017204;28;19917;-78
2021/11/20 10:39:44;;;;;;;;;;;12.50;1.00;;;;;;4999960;28;19919;-78
2021/11/20 10:42:10;;;;;;;;;;;12.40;1.00;;;;;;5013389;28;20409;-78
2021/11/20 10:44:38;;;;;;;;;;;12.40;1.00;;;;;;5016859;28;20008;-78
2021/11/20 10:47:07;;;;;;;;;;;12.40;1.00;;;;;;5016397;28;19913;-78
2021/11/20 10:49:51;;;;;;;;;;;12.40;1.00;;;;;;5012226;28;20301;-78
2021/11/20 10:52:35;;;;;;;;;;;12.40;1.00;;;;;;4991121;28;20333;-78
2021/11/20 10:55:24;;;;;;;;;;;12.40;1.00;;;;;;5014985;28;20386;-78
2021/11/20 10:58:02;;;;;;;;;;;12.30;1.00;;;;;;4995871;28;19920;-78
2021/11/20 11:00:46;;;;;;;;;;;12.30;1.00;;;;;;5016773;28;19913;-78
2021/11/20 11:03:24;;;;;;;;;;;12.30;1.00;;;;;;5012976;28;19914;-78
2021/11/20 11:06:12;;;;;;;;;;;12.40;1.00;;;;;;5018786;28;19920;-78
2021/11/20 11:08:41;;;;;;;;;;;12.30;1.00;;;;;;4996345;28;19923;-78
2021/11/20 11:11:26;;;;;;;;;;;12.30;1.00;;;;;;5016488;28;19921;-77
2021/11/20 11:14:08;;;;;;;;;;;12.30;1.00;;;;;;5018000;28;19918;-78
2021/11/20 11:16:39;;;;;;;;;;;12.30;1.00;;;;;;5012728;28;19918;-78
2021/11/20 11:19:16;;;;;;;;;;;12.30;1.00;;;;;;5012830;28;19914;-78
2021/11/20 11:21:45;;;;;;;;;;;12.30;1.00;;;;;;5010881;28;19968;-78
2021/11/20 11:24:25;;;;;;;;;;;12.20;1.00;;;;;;5012714;28;20416;-78
2021/11/20 11:26:55;;;;;;;;;;;12.20;99.90;;;;;;5017952;28;20297;-78
2021/11/20 11:29:28;;;;;;;;;;;12.20;1.00;;;;;;5016509;28;20246;-78
2021/11/20 11:31:53;;;;;;;;;;;12.20;1.00;;;;;;5008475;28;19913;-78
2021/11/20 11:34:24;;;;;;;;;;;12.10;99.90;;;;;;5008770;28;19918;-78
2021/11/20 11:37:09;;;;;;;;;;;12.10;99.90;;;;;;5018019;28;20460;-78
2021/11/20 11:39:38;;;;;;;;;;;12.10;99.90;;;;;;5020762;28;19910;-77
2021/11/20 11:42:23;;;;;;;;;;;12.10;99.90;;;;;;5017218;28;19913;-78
2021/11/20 11:44:51;;;;;;;;;;;12.10;99.90;;;;;;5004088;28;19964;-78
2021/11/20 11:47:36;;;;;;;;;;;12.00;99.90;;;;;;5014196;28;19913;-78
2021/11/20 11:50:07;;;;;;;;;;;12.00;56.10;;;;;;5009201;28;19913;-78
2021/11/20 11:52:42;;;;;;;;;;;12.00;1.00;;;;;;5006563;28;19976;-78
2021/11/20 11:55:10;;;;;;;;;;;12.10;1.00;;;;;;5006953;28;19920;-78
2021/11/20 11:57:45;;;;;;;;;;;12.00;1.00;;;;;;5005191;28;20034;-78
2021/11/20 12:00:17;;;;;;;;;;;12.00;1.00;;;;;;4987530;28;19910;-77
2021/11/20 12:02:48;;;;;;;;;;;12.00;1.00;;;;;;4997253;28;19913;-77
2021/11/20 12:05:34;;;;;;;;;;;12.00;1.00;;;;;;4992893;28;19921;-78
2021/11/20 12:08:12;;;;;;;;;;;12.00;1.00;;;;;;4999593;28;19965;-77
2021/11/20 12:10:57;;;;;;;;;;;11.90;1.00;;;;;;5017681;28;19917;-77
2021/11/20 12:13:28;;;;;;;;;;;11.90;1.00;;;;;;5001269;28;19914;-77
2021/11/20 12:16:03;;;;;;;;;;;11.90;1.00;;;;;;5000911;28;19921;-78
2021/11/20 12:18:38;;;;;;;;;;;11.90;1.00;;;;;;4997200;28;20340;-78
2021/11/20 12:21:16;;;;;;;;;;;11.90;1.00;;;;;;4994006;28;19920;-78
2021/11/20 12:23:49;;;;;;;;;;;11.90;1.00;;;;;;5001589;28;19963;-78
2021/11/20 12:26:33;;;;;;;;;;;11.90;1.00;;;;;;5000544;28;19914;-78
2021/11/20 12:29:18;;;;;;;;;;;12.00;1.00;;;;;;5013467;28;19925;-79
2021/11/20 12:31:46;;;;;;;;;;;12.00;1.00;;;;;;5020813;28;19968;-78
2021/11/20 12:34:32;;;;;;;;;;;12.00;1.00;;;;;;5003701;28;19996;-78
2021/11/20 12:37:16;;;;;;;;;;;12.00;1.00;;;;;;4998565;28;19943;-79
2021/11/20 12:39:49;;;;;;;;;;;12.00;1.00;;;;;;5016843;28;19945;-78
2021/11/20 12:42:33;;;;;;;;;;;12.00;1.00;;;;;;5002145;28;19953;-78
2021/11/20 12:44:59;;;;;;;;;;;11.90;1.00;;;;;;5004648;28;19914;-78
2021/11/20 12:47:24;;;;;;;;;;;11.80;1.00;;;;;;5004976;28;19914;-78
2021/11/20 12:49:53;;;;;;;;;;;11.70;1.00;;;;;;5020219;28;19924;-78
2021/11/20 12:52:24;;;;;;;;;;;11.70;1.00;;;;;;5021172;28;19932;-79
2021/11/20 12:54:56;;;;;;;;;;;11.70;1.00;;;;;;5017343;28;19968;-79
2021/11/20 12:57:23;;;;;;;;;;;11.70;1.00;;;;;;5007237;28;20004;-78
2021/11/20 12:59:54;;;;;;;;;;;11.70;1.00;;;;;;5018366;28;19925;-79
2021/11/20 13:02:22;;;;;;;;;;;11.70;1.00;;;;;;5001412;28;19914;-78
2021/11/20 13:04:49;;;;;;;;;;;11.60;1.00;;;;;;5014379;28;19913;-78
2021/11/20 13:07:27;;;;;;;;;;;11.60;1.00;;;;;;5005531;28;19921;-78
2021/11/20 13:09:55;;;;;;;;;;;11.60;1.00;;;;;;5004636;28;19914;-78
2021/11/20 13:12:21;;;;;;;;;;;11.70;1.00;;;;;;4996361;28;19928;-78
2021/11/20 13:14:54;;;;;;;;;;;11.70;1.00;;;;;;5015074;28;19918;-77
2021/11/20 13:17:21;;;;;;;;;;;11.70;1.00;;;;;;5005563;28;20252;-78
2021/11/20 13:19:51;;;;;;;;;;;11.60;1.00;;;;;;5003428;28;19913;-78
2021/11/20 13:22:18;;;;;;;;;;;11.70;1.00;;;;;;4998654;28;19984;-77
2021/11/20 13:24:49;;;;;;;;;;;11.70;1.00;;;;;;5020786;28;19924;-78
2021/11/20 13:27:34;;;;;;;;;;;11.60;1.00;;;;;;5007845;28;19913;-78
2021/11/20 13:30:00;;;;;;;;;;;11.60;1.00;;;;;;5002882;28;19922;-78
2021/11/20 13:32:25;;;;;;;;;;;11.60;1.00;;;;;;5008230;28;19917;-78
2021/11/20 13:34:52;;;;;;;;;;;11.50;1.00;;;;;;5023273;28;20013;-78
2021/11/20 13:37:18;;;;;;;;;;;11.50;1.00;;;;;;5001108;28;19913;-78
2021/11/20 13:39:45;;;;;;;;;;;11.50;1.00;;;;;;5014429;28;19916;-78
2021/11/20 13:42:10;;;;;;;;;;;11.50;1.00;;;;;;5006167;28;19913;-78
2021/11/20 13:44:36;;;;;;;;;;;11.50;1.00;;;;;;5006899;28;19932;-78
2021/11/20 13:47:02;;;;;;;;;;;11.50;1.00;;;;;;5004794;28;19914;-78
2021/11/20 13:49:35;;;;;;;;;;;11.50;1.00;;;;;;5007119;28;19916;-78
2021/11/20 13:52:07;;;;;;;;;;;11.50;1.00;;;;;;5003949;28;20155;-78
2021/11/20 13:54:33;;;;;;;;;;;11.40;1.00;;;;;;4987156;28;19949;-78
2021/11/20 13:56:58;;;;;;;;;;;11.40;1.00;;;;;;5011867;28;19914;-78
2021/11/20 13:59:25;;;;;;;;;;;11.40;1.00;;;;;;5001826;28;19914;-78
2021/11/20 14:01:51;;;;;;;;;;;11.40;1.00;;;;;;5022702;28;19914;-79
2021/11/20 14:04:18;;;;;;;;;;;11.40;1.00;;;;;;5005162;28;19920;-78
2021/11/20 14:06:44;;;;;;;;;;;11.40;1.00;;;;;;5022021;28;19963;-78
2021/11/20 14:09:12;;;;;;;;;;;11.40;1.00;;;;;;4988643;28;19913;-79
2021/11/20 14:11:41;;;;;;;;;;;11.40;1.00;;;;;;5020024;28;19921;-78
2021/11/20 14:14:06;;;;;;;;;;;11.30;1.00;;;;;;5000922;28;20012;-78
2021/11/20 14:16:32;;;;;;;;;;;11.30;1.00;;;;;;4999843;28;19945;-78
2021/11/20 14:18:57;;;;;;;;;;;11.30;1.00;;;;;;5017837;28;19941;-77
2021/11/20 14:21:26;;;;;;;;;;;11.30;1.00;;;;;;5005870;28;19909;-78
2021/11/20 14:23:56;;;;;;;;;;;11.30;1.00;;;;;;5016081;28;19921;-77
2021/11/20 14:26:22;;;;;;;;;;;11.30;1.00;;;;;;4996953;28;19917;-78
2021/11/20 14:28:48;;;;;;;;;;;11.20;1.00;;;;;;4987574;28;19914;-79
2021/11/20 14:31:17;;;;;;;;;;;11.20;1.00;;;;;;5002996;28;19914;-78
2021/11/20 14:33:52;;;;;;;;;;;11.20;1.00;;;;;;5017134;28;20356;-79
2021/11/20 14:36:20;;;;;;;;;;;11.20;1.00;;;;;;5015076;28;19917;-78